Time;durP1;ratioP1;P1;durP2;ratioP2;P2;SDS_P1;SDS_P2;PMS_P1;PMS_P2;Temp;Humidity;BMP_temperature;BMP_pressure;BME280_temperature;BME280_humidity;BME280_pressure;Samples;Min_cycle;Max_cycle;Signal;HPM_P1;HPM_P2
2021/11/15 00:01:46;;;;;;;5.77;5.17;;;;;;;;;;5098636;28;20216;-65
2021/11/15 00:04:15;;;;;;;5.80;4.50;;;;;;;;;;5098879;28;20206;-65
2021/11/15 00:06:43;;;;;;;5.37;4.87;;;;;;;;;;5098293;28;20202;-65
2021/11/15 00:09:11;;;;;;;5.37;4.73;;;;;;;;;;5098661;28;20232;-65
2021/11/15 00:11:39;;;;;;;5.57;4.53;;;;;;;;;;5098464;28;20216;-65
2021/11/15 00:14:08;;;;;;;5.33;4.70;;;;;;;;;;5098521;28;20229;-65
2021/11/15 00:16:37;;;;;;;5.63;4.80;;;;;;;;;;5098175;28;20209;-66
2021/11/15 00:19:05;;;;;;;6.80;4.63;;;;;;;;;;5098567;28;20308;-65
2021/11/15 00:21:34;;;;;;;6.63;5.33;;;;;;;;;;5097017;28;20660;-65
2021/11/15 00:24:02;;;;;;;8.47;5.00;;;;;;;;;;5098331;28;20205;-65
2021/11/15 00:26:29;;;;;;;7.10;5.13;;;;;;;;;;5098478;28;20214;-66
2021/11/15 00:28:58;;;;;;;5.70;5.00;;;;;;;;;;5098196;28;20213;-66
2021/11/15 00:31:26;;;;;;;7.40;5.30;;;;;;;;;;5098362;28;20288;-66
2021/11/15 00:33:56;;;;;;;6.40;5.47;;;;;;;;;;5097905;28;20596;-66
2021/11/15 00:36:24;;;;;;;7.37;5.23;;;;;;;;;;5097733;28;20319;-66
2021/11/15 00:38:52;;;;;;;7.13;5.83;;;;;;;;;;5097585;28;20229;-66
2021/11/15 00:41:20;;;;;;;7.30;5.77;;;;;;;;;;5098123;28;20214;-66
2021/11/15 00:43:48;;;;;;;6.53;5.37;;;;;;;;;;5097647;28;20756;-66
2021/11/15 00:46:16;;;;;;;7.20;5.00;;;;;;;;;;5097725;28;20669;-65
2021/11/15 00:48:44;;;;;;;6.57;5.00;;;;;;;;;;5098119;28;20229;-66
2021/11/15 00:51:13;;;;;;;7.70;5.50;;;;;;;;;;5086614;28;20206;-66
2021/11/15 00:53:41;;;;;;;5.53;4.57;;;;;;;;;;5084537;28;20656;-66
2021/11/15 00:56:09;;;;;;;5.53;4.80;;;;;;;;;;5097973;28;20215;-66
2021/11/15 00:58:37;;;;;;;6.20;5.10;;;;;;;;;;5084453;28;20230;-66
2021/11/15 01:01:05;;;;;;;5.67;4.67;;;;;;;;;;5097885;28;20209;-66
2021/11/15 01:03:34;;;;;;;8.03;4.70;;;;;;;;;;5097856;28;20258;-66
2021/11/15 01:06:02;;;;;;;7.50;5.27;;;;;;;;;;5097138;28;20212;-66
2021/11/15 01:08:31;;;;;;;6.07;4.93;;;;;;;;;;5097426;28;20247;-65
2021/11/15 01:10:59;;;;;;;9.00;5.37;;;;;;;;;;5097722;28;20648;-66
2021/11/15 01:13:27;;;;;;;8.07;5.60;;;;;;;;;;5097746;28;20236;-65
2021/11/15 01:15:55;;;;;;;6.40;5.47;;;;;;;;;;5097508;28;20211;-66
2021/11/15 01:18:23;;;;;;;6.03;4.40;;;;;;;;;;5097685;28;20229;-66
2021/11/15 01:20:51;;;;;;;7.03;5.50;;;;;;;;;;5097661;28;20217;-66
2021/11/15 01:23:19;;;;;;;7.20;5.27;;;;;;;;;;5095633;28;20197;-66
2021/11/15 01:25:49;;;;;;;5.63;5.03;;;;;;;;;;5097244;28;20660;-65
2021/11/15 01:28:18;;;;;;;5.83;4.70;;;;;;;;;;5097307;28;20214;-65
2021/11/15 01:30:46;;;;;;;6.67;5.27;;;;;;;;;;5095603;28;20197;-66
2021/11/15 01:33:14;;;;;;;7.03;5.37;;;;;;;;;;5079712;28;20748;-66
2021/11/15 01:35:42;;;;;;;5.97;4.83;;;;;;;;;;5082754;28;20262;-66
2021/11/15 01:38:10;;;;;;;9.33;5.70;;;;;;;;;;5089336;28;20228;-66
2021/11/15 01:40:38;;;;;;;6.33;5.27;;;;;;;;;;5089940;28;20211;-65
2021/11/15 01:43:07;;;;;;;8.03;5.33;;;;;;;;;;5090299;28;20820;-66
2021/11/15 01:45:36;;;;;;;6.50;5.80;;;;;;;;;;5086252;28;20541;-66
2021/11/15 01:48:05;;;;;;;6.87;5.43;;;;;;;;;;5088812;28;20225;-66
2021/11/15 01:50:34;;;;;;;7.83;5.80;;;;;;;;;;5088142;28;20207;-66
2021/11/15 01:53:03;;;;;;;6.90;5.03;;;;;;;;;;5086572;28;20572;-66
2021/11/15 01:55:31;;;;;;;6.93;5.37;;;;;;;;;;5087877;28;20213;-66
2021/11/15 01:58:01;;;;;;;6.47;5.60;;;;;;;;;;5086583;28;20222;-66
2021/11/15 02:00:32;;;;;;;7.63;5.40;;;;;;;;;;5088522;28;20266;-66
2021/11/15 02:03:00;;;;;;;6.87;5.43;;;;;;;;;;5086911;28;20216;-66
2021/11/15 02:05:28;;;;;;;6.80;5.40;;;;;;;;;;5084828;28;20208;-65
2021/11/15 02:07:56;;;;;;;8.93;6.00;;;;;;;;;;5085271;28;22334;-66
2021/11/15 02:10:25;;;;;;;8.07;6.37;;;;;;;;;;5087642;28;20551;-66
2021/11/15 02:12:52;;;;;;;8.17;5.90;;;;;;;;;;5087344;28;20208;-66
2021/11/15 02:15:20;;;;;;;12.60;7.23;;;;;;;;;;5087714;28;20218;-66
2021/11/15 02:17:50;;;;;;;8.73;6.33;;;;;;;;;;5088042;28;20198;-66
2021/11/15 02:20:20;;;;;;;7.43;6.53;;;;;;;;;;5106961;28;20210;-66
2021/11/15 02:22:48;;;;;;;7.73;6.47;;;;;;;;;;5100477;28;20212;-66
2021/11/15 02:25:17;;;;;;;8.83;7.07;;;;;;;;;;5100090;28;20206;-66
2021/11/15 02:27:45;;;;;;;9.07;6.70;;;;;;;;;;5100420;28;20218;-66
2021/11/15 02:30:15;;;;;;;9.70;7.40;;;;;;;;;;5100398;28;20209;-67
2021/11/15 02:32:43;;;;;;;13.30;7.73;;;;;;;;;;5100510;28;20212;-66
2021/11/15 02:35:11;;;;;;;8.47;7.27;;;;;;;;;;5099743;28;20225;-66
2021/11/15 02:37:42;;;;;;;10.60;8.30;;;;;;;;;;5097553;28;20655;-66
2021/11/15 02:40:11;;;;;;;11.47;7.30;;;;;;;;;;5099855;28;20218;-66
2021/11/15 02:42:39;;;;;;;12.73;8.20;;;;;;;;;;5099953;28;20241;-66
2021/11/15 02:45:09;;;;;;;10.90;7.87;;;;;;;;;;5099048;28;20616;-66
2021/11/15 02:47:37;;;;;;;8.60;7.57;;;;;;;;;;5100107;28;20288;-67
2021/11/15 02:50:06;;;;;;;12.50;7.77;;;;;;;;;;5099553;28;20212;-66
2021/11/15 02:52:34;;;;;;;10.23;7.53;;;;;;;;;;5099980;28;20732;-66
2021/11/15 02:55:03;;;;;;;11.43;8.47;;;;;;;;;;5100040;28;20235;-66
2021/11/15 02:57:31;;;;;;;10.40;7.83;;;;;;;;;;5100095;28;20205;-66
2021/11/15 02:59:59;;;;;;;10.80;8.00;;;;;;;;;;5099928;28;20233;-66
2021/11/15 03:02:29;;;;;;;14.80;8.33;;;;;;;;;;5100108;28;20206;-66
2021/11/15 03:04:58;;;;;;;10.23;8.40;;;;;;;;;;5099498;28;20198;-66
2021/11/15 03:07:26;;;;;;;12.33;7.80;;;;;;;;;;5099805;28;20201;-66
2021/11/15 03:09:54;;;;;;;11.63;7.90;;;;;;;;;;5099485;28;20251;-66
2021/11/15 03:12:31;;;;;;;11.27;8.63;;;;;;;;;;5099651;28;20206;-66
2021/11/15 03:14:59;;;;;;;13.47;9.40;;;;;;;;;;5099208;28;20225;-66
2021/11/15 03:17:27;;;;;;;14.03;8.73;;;;;;;;;;5099688;28;20237;-66
2021/11/15 03:19:55;;;;;;;11.33;8.40;;;;;;;;;;5099860;28;20255;-66
2021/11/15 03:22:23;;;;;;;12.07;8.57;;;;;;;;;;5100284;28;20205;-66
2021/11/15 03:24:51;;;;;;;11.67;8.43;;;;;;;;;;5099732;28;20202;-66
2021/11/15 03:27:18;;;;;;;12.33;8.27;;;;;;;;;;5099315;28;20206;-66
2021/11/15 03:29:48;;;;;;;14.17;9.03;;;;;;;;;;5099105;28;20652;-66
2021/11/15 03:32:17;;;;;;;14.67;9.43;;;;;;;;;;5099529;28;20210;-66
2021/11/15 03:34:44;;;;;;;16.33;9.13;;;;;;;;;;5099122;28;20225;-66
2021/11/15 03:37:13;;;;;;;18.50;8.67;;;;;;;;;;5095333;28;20255;-66
2021/11/15 03:39:41;;;;;;;12.93;9.23;;;;;;;;;;5097563;28;20647;-66
2021/11/15 03:42:09;;;;;;;18.23;9.60;;;;;;;;;;5099134;28;20215;-66
2021/11/15 03:44:37;;;;;;;13.97;9.40;;;;;;;;;;5099079;28;20205;-66
2021/11/15 03:47:06;;;;;;;17.40;9.73;;;;;;;;;;5098955;28;20216;-65
2021/11/15 03:49:34;;;;;;;16.87;10.83;;;;;;;;;;5098580;28;20228;-66
2021/11/15 03:52:02;;;;;;;15.13;10.30;;;;;;;;;;5092827;28;20209;-66
2021/11/15 03:54:30;;;;;;;16.90;9.80;;;;;;;;;;5094804;28;20205;-66
2021/11/15 03:56:58;;;;;;;14.37;9.33;;;;;;;;;;5098868;28;20213;-66
2021/11/15 03:59:26;;;;;;;14.17;9.33;;;;;;;;;;5098674;28;20234;-66
2021/11/15 04:01:54;;;;;;;19.13;11.20;;;;;;;;;;5098647;28;20205;-66
2021/11/15 04:04:28;;;;;;;16.13;10.23;;;;;;;;;;5098428;28;20244;-66
2021/11/15 04:06:56;;;;;;;17.53;10.37;;;;;;;;;;5098600;28;20215;-66
2021/11/15 04:09:24;;;;;;;14.70;9.63;;;;;;;;;;5098532;28;20222;-66
2021/11/15 04:11:52;;;;;;;14.57;9.33;;;;;;;;;;5098632;28;20209;-66
2021/11/15 04:14:20;;;;;;;18.17;10.43;;;;;;;;;;5098410;28;20213;-65
2021/11/15 04:16:48;;;;;;;16.27;9.73;;;;;;;;;;5098563;28;20310;-66
2021/11/15 04:19:17;;;;;;;16.13;10.93;;;;;;;;;;5098351;28;20232;-66
2021/11/15 04:21:48;;;;;;;17.63;9.83;;;;;;;;;;5098613;28;20293;-66
2021/11/15 04:24:16;;;;;;;18.40;10.50;;;;;;;;;;5099182;28;20288;-66
2021/11/15 04:26:44;;;;;;;14.40;10.20;;;;;;;;;;5098735;28;20215;-65
2021/11/15 04:29:12;;;;;;;16.70;10.00;;;;;;;;;;5098212;28;20249;-66
2021/11/15 04:31:40;;;;;;;15.87;11.27;;;;;;;;;;5098461;28;20210;-66
2021/11/15 04:34:08;;;;;;;16.17;9.90;;;;;;;;;;5098322;28;20287;-66
2021/11/15 04:36:36;;;;;;;17.83;10.03;;;;;;;;;;5097536;28;20229;-66
2021/11/15 04:39:05;;;;;;;17.67;10.63;;;;;;;;;;5097680;28;20594;-66
2021/11/15 04:41:33;;;;;;;16.17;10.07;;;;;;;;;;5098041;28;20577;-66
2021/11/15 04:44:01;;;;;;;15.77;9.63;;;;;;;;;;5097882;28;20237;-66
2021/11/15 04:46:29;;;;;;;17.00;10.23;;;;;;;;;;5098107;28;20281;-66
2021/11/15 04:48:57;;;;;;;18.63;10.27;;;;;;;;;;5098192;28;20255;-66
2021/11/15 04:51:25;;;;;;;17.30;11.00;;;;;;;;;;5097544;28;20205;-66
2021/11/15 04:53:53;;;;;;;18.87;10.10;;;;;;;;;;5098013;28;20206;-66
2021/11/15 04:56:22;;;;;;;18.67;11.30;;;;;;;;;;5097983;28;20231;-66
2021/11/15 04:58:50;;;;;;;18.73;11.40;;;;;;;;;;5097472;28;20225;-67
2021/11/15 05:01:18;;;;;;;17.27;11.10;;;;;;;;;;5098057;28;20293;-66
2021/11/15 05:03:47;;;;;;;17.13;10.37;;;;;;;;;;5089443;28;20234;-66
2021/11/15 05:06:15;;;;;;;20.60;10.57;;;;;;;;;;5097412;28;20201;-66
2021/11/15 05:08:43;;;;;;;17.77;11.00;;;;;;;;;;5097025;28;20728;-66
2021/11/15 05:11:11;;;;;;;15.37;9.80;;;;;;;;;;5097590;28;20205;-66
2021/11/15 05:13:40;;;;;;;15.97;9.97;;;;;;;;;;5097472;28;20206;-66
2021/11/15 05:16:08;;;;;;;15.40;10.03;;;;;;;;;;5097607;28;20231;-66
2021/11/15 05:18:39;;;;;;;18.37;10.10;;;;;;;;;;5097403;28;20270;-66
2021/11/15 05:21:07;;;;;;;17.30;10.83;;;;;;;;;;5097092;28;20204;-65
2021/11/15 05:23:37;;;;;;;17.00;10.70;;;;;;;;;;5092923;28;20652;-67
2021/11/15 05:26:05;;;;;;;16.70;10.47;;;;;;;;;;5095375;28;20235;-66
2021/11/15 05:28:33;;;;;;;16.50;10.70;;;;;;;;;;5095877;28;20217;-66
2021/11/15 05:31:02;;;;;;;18.13;11.60;;;;;;;;;;5096295;28;20209;-65
2021/11/15 05:33:30;;;;;;;17.97;11.00;;;;;;;;;;5094191;28;20206;-65
2021/11/15 05:35:58;;;;;;;18.80;11.87;;;;;;;;;;5094876;28;20217;-66
2021/11/15 05:38:26;;;;;;;20.07;12.37;;;;;;;;;;5096073;28;20236;-66
2021/11/15 05:40:54;;;;;;;18.57;11.47;;;;;;;;;;5085662;28;20281;-66
2021/11/15 05:43:22;;;;;;;18.40;11.27;;;;;;;;;;5091049;28;20244;-65
2021/11/15 05:45:50;;;;;;;20.87;11.80;;;;;;;;;;5097023;28;20241;-66
2021/11/15 05:48:20;;;;;;;22.50;11.20;;;;;;;;;;5096827;28;20730;-66
2021/11/15 05:50:48;;;;;;;19.53;11.13;;;;;;;;;;5096884;28;20211;-66
2021/11/15 05:53:16;;;;;;;18.63;11.00;;;;;;;;;;5091351;28;20666;-66
2021/11/15 05:55:44;;;;;;;19.03;11.70;;;;;;;;;;5095755;28;20220;-66
2021/11/15 05:58:12;;;;;;;21.93;11.97;;;;;;;;;;5097138;28;20225;-66
2021/11/15 06:00:41;;;;;;;18.10;11.37;;;;;;;;;;5096696;28;20231;-65
2021/11/15 06:03:09;;;;;;;20.60;11.83;;;;;;;;;;5097008;28;20250;-66
2021/11/15 06:05:39;;;;;;;18.97;10.77;;;;;;;;;;5096492;28;20571;-65
2021/11/15 06:08:07;;;;;;;20.23;12.27;;;;;;;;;;5088436;28;20226;-66
2021/11/15 06:10:35;;;;;;;18.20;11.67;;;;;;;;;;5082264;28;20202;-66
2021/11/15 06:13:05;;;;;;;20.27;12.53;;;;;;;;;;5080174;28;20748;-66
2021/11/15 06:15:33;;;;;;;16.57;10.53;;;;;;;;;;5083202;28;20282;-66
2021/11/15 06:18:01;;;;;;;20.17;12.27;;;;;;;;;;5087799;28;20232;-66
2021/11/15 06:20:29;;;;;;;18.30;11.20;;;;;;;;;;5097758;28;20202;-66
2021/11/15 06:22:59;;;;;;;21.23;11.70;;;;;;;;;;5100944;28;20209;-66
2021/11/15 06:25:27;;;;;;;23.37;13.93;;;;;;;;;;5091262;28;20665;-66
2021/11/15 06:27:55;;;;;;;18.60;11.77;;;;;;;;;;5100558;28;20201;-66
2021/11/15 06:30:23;;;;;;;21.27;12.50;;;;;;;;;;5098444;28;20215;-66
2021/11/15 06:32:51;;;;;;;19.63;11.83;;;;;;;;;;5100555;28;20212;-66
2021/11/15 06:35:19;;;;;;;20.00;11.93;;;;;;;;;;5099623;28;20298;-66
2021/11/15 06:37:48;;;;;;;20.60;12.30;;;;;;;;;;5099992;28;20224;-66
2021/11/15 06:40:17;;;;;;;20.83;12.33;;;;;;;;;;5099921;28;20208;-66
2021/11/15 06:42:45;;;;;;;18.60;12.30;;;;;;;;;;5099874;28;20240;-66
2021/11/15 06:45:13;;;;;;;21.17;12.80;;;;;;;;;;5100067;28;20210;-66
2021/11/15 06:47:42;;;;;;;21.43;13.37;;;;;;;;;;5099815;28;20206;-66
2021/11/15 06:50:10;;;;;;;21.00;13.40;;;;;;;;;;5092047;28;20205;-64
2021/11/15 06:52:39;;;;;;;20.23;12.20;;;;;;;;;;5090399;28;20208;-64
2021/11/15 06:55:07;;;;;;;16.33;11.33;;;;;;;;;;5085601;28;20202;-64
2021/11/15 06:57:38;;;;;;;19.63;11.30;;;;;;;;;;5084594;28;20222;-64
2021/11/15 07:00:06;;;;;;;17.30;11.07;;;;;;;;;;5084532;28;20209;-65
2021/11/15 07:02:34;;;;;;;20.37;12.93;;;;;;;;;;5092829;28;20779;-65
2021/11/15 07:05:03;;;;;;;14.33;11.00;;;;;;;;;;5091098;28;20220;-63
2021/11/15 07:07:31;;;;;;;22.03;12.83;;;;;;;;;;5090813;28;20194;-65
2021/11/15 07:09:59;;;;;;;18.67;11.37;;;;;;;;;;5087952;28;20300;-66
2021/11/15 07:12:27;;;;;;;20.43;12.37;;;;;;;;;;5083831;28;20538;-66
2021/11/15 07:14:57;;;;;;;22.57;12.10;;;;;;;;;;5086341;28;20661;-66
2021/11/15 07:17:24;;;;;;;24.57;14.00;;;;;;;;;;5084466;28;20222;-66
2021/11/15 07:19:52;;;;;;;23.07;12.07;;;;;;;;;;5086385;28;20217;-65
2021/11/15 07:22:30;;;;;;;19.10;11.87;;;;;;;;;;5085841;28;20226;-66
2021/11/15 07:24:58;;;;;;;21.90;12.20;;;;;;;;;;5092663;28;20229;-66
2021/11/15 07:27:26;;;;;;;20.00;11.13;;;;;;;;;;5099566;28;20204;-66
2021/11/15 07:29:54;;;;;;;18.13;11.53;;;;;;;;;;5098801;28;20228;-65
2021/11/15 07:32:24;;;;;;;18.70;12.47;;;;;;;;;;5102358;28;20213;-65
2021/11/15 07:34:52;;;;;;;17.40;11.20;;;;;;;;;;5104886;28;20304;-65
2021/11/15 07:37:20;;;;;;;18.10;11.67;;;;;;;;;;5105657;28;20303;-65
2021/11/15 07:39:48;;;;;;;19.50;10.77;;;;;;;;;;5111085;28;20226;-65
2021/11/15 07:42:19;;;;;;;18.23;11.27;;;;;;;;;;5098508;28;20237;-65
2021/11/15 07:44:47;;;;;;;21.13;11.43;;;;;;;;;;5098760;28;20205;-65
2021/11/15 07:47:15;;;;;;;17.43;11.13;;;;;;;;;;5098727;28;20679;-65
2021/11/15 07:49:45;;;;;;;15.67;10.80;;;;;;;;;;5098495;28;20230;-66
2021/11/15 07:52:15;;;;;;;14.07;10.27;;;;;;;;;;5098611;28;20206;-66
2021/11/15 07:54:44;;;;;;;18.30;11.13;;;;;;;;;;5098834;28;20206;-65
2021/11/15 07:57:12;;;;;;;15.53;10.53;;;;;;;;;;5098726;28;20235;-66
2021/11/15 07:59:40;;;;;;;16.00;9.77;;;;;;;;;;5098296;28;20712;-66
2021/11/15 08:02:08;;;;;;;16.07;10.83;;;;;;;;;;5098266;28;20253;-66
2021/11/15 08:04:36;;;;;;;16.27;10.70;;;;;;;;;;5098361;28;20209;-65
2021/11/15 08:07:06;;;;;;;15.77;10.73;;;;;;;;;;5098451;28;20205;-66
2021/11/15 08:09:34;;;;;;;20.30;10.87;;;;;;;;;;5098105;28;20309;-65
2021/11/15 08:12:04;;;;;;;15.13;10.00;;;;;;;;;;5098231;28;20209;-66
2021/11/15 08:14:32;;;;;;;18.63;10.63;;;;;;;;;;5088436;28;20277;-66
2021/11/15 08:17:00;;;;;;;16.77;10.30;;;;;;;;;;5095182;28;20213;-65
2021/11/15 08:19:28;;;;;;;16.40;10.30;;;;;;;;;;5097806;28;20807;-66
2021/11/15 08:21:58;;;;;;;16.13;10.83;;;;;;;;;;5098266;28;20205;-66
2021/11/15 08:24:50;;;;;;;19.77;11.07;;;;;;;;;;5098627;28;20288;-64
2021/11/15 08:27:19;;;;;;;16.90;10.40;;;;;;;;;;5098272;28;20209;-66
2021/11/15 08:29:47;;;;;;;13.17;9.20;;;;;;;;;;5097793;28;20696;-65
2021/11/15 08:32:16;;;;;;;17.63;10.37;;;;;;;;;;5098173;28;20205;-65
2021/11/15 08:34:44;;;;;;;14.17;10.60;;;;;;;;;;5097959;28;20213;-65
2021/11/15 08:37:13;;;;;;;16.43;10.40;;;;;;;;;;5094616;28;20538;-65
2021/11/15 08:39:41;;;;;;;13.50;9.43;;;;;;;;;;5108071;28;20251;-65
2021/11/15 08:42:10;;;;;;;16.23;10.60;;;;;;;;;;5102806;28;20193;-65
2021/11/15 08:44:42;;;;;;;16.80;10.03;;;;;;;;;;5105501;28;20720;-66
2021/11/15 08:47:10;;;;;;;13.67;9.17;;;;;;;;;;5103780;28;20637;-66
2021/11/15 08:49:38;;;;;;;15.10;10.27;;;;;;;;;;5098621;28;20226;-66
2021/11/15 08:52:06;;;;;;;20.17;11.27;;;;;;;;;;5095667;28;20202;-65
2021/11/15 08:54:35;;;;;;;16.60;11.10;;;;;;;;;;5105324;28;20197;-66
2021/11/15 08:57:04;;;;;;;18.37;10.50;;;;;;;;;;5102783;28;20657;-64
2021/11/15 08:59:45;;;;;;;16.43;10.37;;;;;;;;;;5103601;28;20300;-66
2021/11/15 09:02:15;;;;;;;18.80;10.73;;;;;;;;;;5105636;28;20227;-66
2021/11/15 09:04:43;;;;;;;16.90;11.37;;;;;;;;;;5101017;28;20236;-67
2021/11/15 09:07:11;;;;;;;19.27;11.27;;;;;;;;;;5097267;28;20644;-66
2021/11/15 09:09:39;;;;;;;15.70;10.03;;;;;;;;;;5099365;28;20676;-66
2021/11/15 09:12:09;;;;;;;18.47;10.97;;;;;;;;;;5103294;28;20224;-65
2021/11/15 09:14:37;;;;;;;16.80;10.70;;;;;;;;;;5098314;28;20198;-65
2021/11/15 09:17:07;;;;;;;18.57;9.70;;;;;;;;;;5097586;28;20296;-64
2021/11/15 09:19:34;;;;;;;15.50;9.30;;;;;;;;;;5097195;28;20312;-66
2021/11/15 09:22:03;;;;;;;14.07;9.60;;;;;;;;;;5097384;28;20213;-66
2021/11/15 09:24:31;;;;;;;14.67;9.80;;;;;;;;;;5097862;28;20216;-66
2021/11/15 09:27:01;;;;;;;20.77;12.43;;;;;;;;;;5097687;28;20372;-66
2021/11/15 09:29:29;;;;;;;16.50;10.33;;;;;;;;;;5102901;28;20226;-66
2021/11/15 09:31:57;;;;;;;14.27;9.93;;;;;;;;;;5106249;28;20232;-66
2021/11/15 09:34:26;;;;;;;14.80;10.73;;;;;;;;;;5106664;28;20223;-67
2021/11/15 09:36:54;;;;;;;16.97;10.33;;;;;;;;;;5102583;28;20208;-66
2021/11/15 09:39:23;;;;;;;16.17;9.77;;;;;;;;;;5104308;28;20740;-66
2021/11/15 09:41:51;;;;;;;17.70;10.17;;;;;;;;;;5102704;28;20197;-65
2021/11/15 09:44:19;;;;;;;16.83;10.17;;;;;;;;;;5106433;28;20193;-67
2021/11/15 09:46:47;;;;;;;14.60;9.53;;;;;;;;;;5105447;28;20561;-66
2021/11/15 09:49:15;;;;;;;17.67;10.10;;;;;;;;;;5106647;28;20213;-66
2021/11/15 09:51:46;;;;;;;17.97;10.97;;;;;;;;;;5110434;28;20280;-66
2021/11/15 09:54:14;;;;;;;17.00;10.43;;;;;;;;;;5106212;28;20219;-66
2021/11/15 09:56:42;;;;;;;14.73;9.63;;;;;;;;;;5105564;28;20242;-66
2021/11/15 09:59:12;;;;;;;15.37;10.27;;;;;;;;;;5102907;28;20229;-66
2021/11/15 10:01:40;;;;;;;15.33;9.57;;;;;;;;;;5100932;28;20207;-66
2021/11/15 10:04:08;;;;;;;17.30;9.10;;;;;;;;;;5100450;28;20210;-66
2021/11/15 10:06:36;;;;;;;14.23;8.67;;;;;;;;;;5100447;28;20571;-66
2021/11/15 10:09:06;;;;;;;20.50;10.40;;;;;;;;;;5100490;28;20309;-66
2021/11/15 10:11:44;;;;;;;14.53;9.70;;;;;;;;;;5100734;28;20209;-66
2021/11/15 10:14:12;;;;;;;15.43;9.93;;;;;;;;;;5099302;28;20212;-66
2021/11/15 10:16:40;;;;;;;18.03;9.90;;;;;;;;;;5087528;28;20208;-66
2021/11/15 10:19:09;;;;;;;16.83;9.73;;;;;;;;;;5099940;28;20229;-66
2021/11/15 10:21:40;;;;;;;13.77;9.50;;;;;;;;;;5100515;28;20293;-66
2021/11/15 10:24:11;;;;;;;14.93;9.47;;;;;;;;;;5100673;28;20213;-65
2021/11/15 10:26:41;;;;;;;18.57;9.83;;;;;;;;;;5100300;28;20738;-66
2021/11/15 10:29:11;;;;;;;18.90;9.73;;;;;;;;;;5100089;28;20228;-66
2021/11/15 10:31:40;;;;;;;16.17;10.20;;;;;;;;;;5100320;28;20586;-66
2021/11/15 10:34:11;;;;;;;17.00;9.53;;;;;;;;;;5100818;28;20205;-66
2021/11/15 10:36:50;;;;;;;14.30;9.93;;;;;;;;;;5100531;28;20213;-65
2021/11/15 10:39:21;;;;;;;13.47;8.33;;;;;;;;;;5090460;28;20229;-66
2021/11/15 10:41:56;;;;;;;15.30;9.17;;;;;;;;;;5099790;28;20209;-65
2021/11/15 10:44:25;;;;;;;13.13;8.93;;;;;;;;;;5059711;28;20657;-66
2021/11/15 10:46:53;;;;;;;14.13;9.07;;;;;;;;;;5059748;28;20223;-66
2021/11/15 10:49:22;;;;;;;12.73;8.60;;;;;;;;;;5058945;28;20219;-66
2021/11/15 10:51:53;;;;;;;10.93;8.10;;;;;;;;;;5059314;28;20210;-64
2021/11/15 10:54:29;;;;;;;12.83;8.27;;;;;;;;;;5065822;28;20205;-66
2021/11/15 10:56:59;;;;;;;12.97;7.90;;;;;;;;;;5068943;28;20569;-66
2021/11/15 10:59:28;;;;;;;14.67;8.87;;;;;;;;;;5067517;28;20229;-66
2021/11/15 11:01:56;;;;;;;17.53;9.33;;;;;;;;;;5067555;28;20216;-66
2021/11/15 11:04:26;;;;;;;18.70;10.03;;;;;;;;;;5069112;28;20206;-66
2021/11/15 11:06:57;;;;;;;14.77;8.60;;;;;;;;;;5063575;28;20217;-67
2021/11/15 11:09:36;;;;;;;13.03;8.13;;;;;;;;;;5059132;28;20219;-66
2021/11/15 11:12:08;;;;;;;12.97;8.60;;;;;;;;;;5065899;28;20204;-66
2021/11/15 11:14:36;;;;;;;14.30;8.67;;;;;;;;;;5067491;28;20195;-66
2021/11/15 11:17:06;;;;;;;16.73;8.90;;;;;;;;;;5060038;28;20808;-66
2021/11/15 11:19:36;;;;;;;17.73;9.23;;;;;;;;;;5068633;28;20230;-64
2021/11/15 11:22:26;;;;;;;16.63;8.40;;;;;;;;;;5062696;28;20637;-65
2021/11/15 11:25:07;;;;;;;17.47;9.27;;;;;;;;;;5066795;28;20215;-65
2021/11/15 11:27:35;;;;;;;13.80;9.27;;;;;;;;;;5065838;28;20205;-64
2021/11/15 11:30:05;;;;;;;13.03;8.10;;;;;;;;;;5066696;28;20199;-66
2021/11/15 11:32:33;;;;;;;17.27;8.80;;;;;;;;;;5059476;28;20294;-65
2021/11/15 11:35:01;;;;;;;13.50;8.70;;;;;;;;;;5058063;28;20213;-66
2021/11/15 11:37:30;;;;;;;12.13;8.20;;;;;;;;;;5052927;28;20212;-65
2021/11/15 11:40:00;;;;;;;12.03;7.57;;;;;;;;;;5056561;28;20245;-66
2021/11/15 11:42:29;;;;;;;14.90;8.77;;;;;;;;;;5070165;28;20573;-63
2021/11/15 11:44:58;;;;;;;12.10;7.93;;;;;;;;;;5107220;28;20695;-65
2021/11/15 11:47:28;;;;;;;12.97;8.10;;;;;;;;;;5098987;28;20683;-65
2021/11/15 11:49:59;;;;;;;13.23;8.80;;;;;;;;;;5098366;28;20304;-64
2021/11/15 11:52:29;;;;;;;13.30;8.07;;;;;;;;;;5098365;28;20202;-65
2021/11/15 11:54:57;;;;;;;13.00;8.17;;;;;;;;;;5098745;28;20201;-66
2021/11/15 11:57:29;;;;;;;14.43;8.70;;;;;;;;;;5098777;28;20289;-65
2021/11/15 11:59:59;;;;;;;14.03;7.20;;;;;;;;;;5098098;28;20600;-65
2021/11/15 12:02:28;;;;;;;16.13;7.60;;;;;;;;;;5098545;28;20300;-66
2021/11/15 12:05:00;;;;;;;14.43;7.87;;;;;;;;;;5098288;28;20209;-66
2021/11/15 12:07:30;;;;;;;11.67;7.57;;;;;;;;;;5098599;28;20217;-66
2021/11/15 12:09:59;;;;;;;10.17;7.00;;;;;;;;;;5097057;28;20225;-65
2021/11/15 12:12:48;;;;;;;11.40;7.70;;;;;;;;;;5086275;28;20208;-66
2021/11/15 12:15:29;;;;;;;8.37;6.83;;;;;;;;;;5095975;28;20216;-65
2021/11/15 12:18:05;;;;;;;10.77;7.23;;;;;;;;;;5091679;28;20229;-66
2021/11/15 12:20:33;;;;;;;10.50;6.77;;;;;;;;;;5097711;28;20621;-65
2021/11/15 12:23:11;;;;;;;8.67;5.83;;;;;;;;;;5098141;28;20718;-65
2021/11/15 12:25:39;;;;;;;12.17;6.97;;;;;;;;;;5098326;28;20686;-64
2021/11/15 12:28:09;;;;;;;11.43;6.40;;;;;;;;;;5098329;28;20236;-64
2021/11/15 12:30:44;;;;;;;9.67;5.80;;;;;;;;;;5098606;28;20211;-64
2021/11/15 12:33:22;;;;;;;10.53;6.43;;;;;;;;;;5098258;28;20728;-67
2021/11/15 12:35:58;;;;;;;6.47;5.00;;;;;;;;;;5097883;28;20201;-64
2021/11/15 12:38:38;;;;;;;8.43;5.27;;;;;;;;;;5093540;28;20233;-64
2021/11/15 12:41:22;;;;;;;10.23;4.93;;;;;;;;;;5097833;28;20237;-64
2021/11/15 12:44:12;;;;;;;10.20;6.17;;;;;;;;;;5081935;28;20234;-65
2021/11/15 12:46:41;;;;;;;10.27;5.67;;;;;;;;;;5097941;28;20208;-66
2021/11/15 12:49:16;;;;;;;11.17;5.70;;;;;;;;;;5097901;28;20282;-64
2021/11/15 12:51:48;;;;;;;6.77;4.93;;;;;;;;;;5097871;28;20207;-65
2021/11/15 12:54:16;;;;;;;8.70;5.13;;;;;;;;;;5097693;28;20201;-65
2021/11/15 12:56:44;;;;;;;8.53;5.33;;;;;;;;;;5097739;28;20212;-64
2021/11/15 12:59:14;;;;;;;7.97;5.07;;;;;;;;;;5097489;28;20248;-65
2021/11/15 13:01:42;;;;;;;7.10;5.20;;;;;;;;;;5097803;28;20229;-66
2021/11/15 13:04:10;;;;;;;8.83;5.93;;;;;;;;;;5097566;28;20211;-64
2021/11/15 13:06:38;;;;;;;9.37;5.40;;;;;;;;;;5097745;28;20209;-65
2021/11/15 13:09:06;;;;;;;9.90;5.53;;;;;;;;;;5097638;28;20229;-64
2021/11/15 13:11:36;;;;;;;10.07;5.70;;;;;;;;;;5095063;28;20201;-66
2021/11/15 13:14:04;;;;;;;10.90;6.10;;;;;;;;;;5089267;28;20657;-65
2021/11/15 13:16:33;;;;;;;8.27;5.93;;;;;;;;;;5097081;28;20582;-66
2021/11/15 13:19:01;;;;;;;8.67;5.47;;;;;;;;;;5097146;28;20587;-65
2021/11/15 13:21:29;;;;;;;10.23;6.00;;;;;;;;;;5097048;28;20225;-65
2021/11/15 13:23:57;;;;;;;10.43;5.73;;;;;;;;;;5097344;28;20216;-65
2021/11/15 13:26:25;;;;;;;7.10;5.30;;;;;;;;;;5097830;28;20211;-65
2021/11/15 13:28:53;;;;;;;9.87;5.00;;;;;;;;;;5097865;28;20230;-65
2021/11/15 13:31:21;;;;;;;8.80;5.50;;;;;;;;;;5102020;28;20201;-65
2021/11/15 13:33:50;;;;;;;8.83;5.23;;;;;;;;;;5101724;28;20220;-66
2021/11/15 13:36:22;;;;;;;9.77;5.80;;;;;;;;;;5101815;28;20268;-67
2021/11/15 13:38:50;;;;;;;8.27;5.67;;;;;;;;;;5090789;28;20595;-65
2021/11/15 13:41:18;;;;;;;8.90;5.40;;;;;;;;;;5101942;28;20225;-66
2021/11/15 13:43:46;;;;;;;10.40;5.80;;;;;;;;;;5097954;28;20591;-65
2021/11/15 13:46:15;;;;;;;7.90;4.77;;;;;;;;;;5101646;28;20263;-66
2021/11/15 13:48:43;;;;;;;8.60;5.23;;;;;;;;;;5100850;28;20696;-66
2021/11/15 13:51:12;;;;;;;7.87;5.23;;;;;;;;;;5100983;28;20200;-66
2021/11/15 13:53:41;;;;;;;10.63;5.73;;;;;;;;;;5101351;28;20284;-66
2021/11/15 13:56:11;;;;;;;8.03;5.20;;;;;;;;;;5101191;28;20217;-66
2021/11/15 13:58:41;;;;;;;8.57;5.70;;;;;;;;;;5101013;28;20228;-66
2021/11/15 14:01:10;;;;;;;6.80;4.73;;;;;;;;;;5100869;28;20221;-66
2021/11/15 14:03:39;;;;;;;9.03;5.37;;;;;;;;;;5100969;28;20198;-66
2021/11/15 14:06:08;;;;;;;7.17;4.93;;;;;;;;;;5100595;28;20208;-66
2021/11/15 14:08:37;;;;;;;8.70;5.57;;;;;;;;;;5100464;28;20231;-66
2021/11/15 14:11:07;;;;;;;10.00;4.57;;;;;;;;;;5100651;28;20905;-66
2021/11/15 14:13:36;;;;;;;6.73;4.90;;;;;;;;;;5096902;28;20205;-66
2021/11/15 14:16:05;;;;;;;6.97;4.90;;;;;;;;;;5094821;28;20205;-66
2021/11/15 14:18:33;;;;;;;8.03;5.17;;;;;;;;;;5084631;28;20229;-66
2021/11/15 14:21:01;;;;;;;9.27;5.73;;;;;;;;;;5099863;28;20591;-66
2021/11/15 14:23:29;;;;;;;9.00;5.60;;;;;;;;;;5100211;28;20202;-64
2021/11/15 14:26:01;;;;;;;7.20;5.93;;;;;;;;;;5100147;28;20209;-65
2021/11/15 14:28:29;;;;;;;7.37;5.07;;;;;;;;;;5100056;28;20224;-66
2021/11/15 14:30:57;;;;;;;7.70;4.90;;;;;;;;;;5100621;28;20206;-64
2021/11/15 14:33:25;;;;;;;7.77;5.23;;;;;;;;;;5100274;28;20268;-64
2021/11/15 14:35:55;;;;;;;8.20;5.40;;;;;;;;;;5090881;28;20201;-65
2021/11/15 14:38:23;;;;;;;7.13;5.33;;;;;;;;;;5100170;28;20233;-66
2021/11/15 14:40:51;;;;;;;8.60;5.70;;;;;;;;;;5097998;28;20671;-65